createdAt,value
2022-07-31T00:02:12.625Z,14.07
2022-07-31T00:04:42.438Z,14.08
2022-07-31T00:07:16.090Z,14.06
2022-07-31T00:09:54.457Z,13.99
2022-07-31T00:12:23.565Z,13.97
2022-07-31T00:14:54.494Z,13.95
2022-07-31T00:17:25.947Z,13.85
2022-07-31T00:19:58.980Z,13.82
2022-07-31T00:22:29.586Z,13.84
2022-07-31T00:24:58.070Z,13.83
2022-07-31T00:27:26.404Z,13.77
2022-07-31T00:29:54.804Z,13.84
2022-07-31T00:32:27.952Z,13.89
2022-07-31T00:34:56.256Z,13.69
2022-07-31T00:37:26.016Z,13.59
2022-07-31T00:39:54.583Z,13.73
2022-07-31T00:42:25.794Z,13.75
2022-07-31T00:44:54.448Z,13.84
2022-07-31T00:47:25.572Z,13.69
2022-07-31T00:49:57.015Z,13.62
2022-07-31T00:52:26.737Z,13.60
2022-07-31T00:54:55.202Z,13.61
2022-07-31T00:57:23.559Z,13.65
2022-07-31T00:59:52.017Z,13.58
2022-07-31T01:02:20.372Z,13.44
2022-07-31T01:04:48.776Z,13.32
2022-07-31T01:07:17.046Z,13.43
2022-07-31T01:09:53.898Z,13.47
2022-07-31T01:12:25.273Z,13.36
2022-07-31T01:14:57.696Z,13.31
2022-07-31T01:17:32.059Z,13.27
2022-07-31T01:20:02.472Z,13.28
2022-07-31T01:22:50.623Z,13.03
2022-07-31T01:25:37.662Z,13.06
2022-07-31T01:28:10.959Z,13.12
2022-07-31T01:30:44.912Z,13.06
2022-07-31T01:33:17.270Z,13.11
2022-07-31T01:35:53.260Z,13.10
2022-07-31T01:38:30.518Z,13.01
2022-07-31T01:41:00.138Z,13.09
2022-07-31T01:43:32.679Z,13.08
2022-07-31T01:46:37.505Z,13.10
2022-07-31T01:49:10.674Z,13.10
2022-07-31T01:51:45.291Z,12.95
2022-07-31T01:54:14.219Z,12.99
2022-07-31T01:56:45.280Z,12.93
2022-07-31T01:59:22.556Z,12.85
2022-07-31T02:01:53.560Z,12.90
2022-07-31T02:04:24.511Z,12.90
2022-07-31T02:06:57.064Z,12.88
2022-07-31T02:09:28.928Z,12.86
2022-07-31T02:11:57.563Z,12.81
2022-07-31T02:14:26.789Z,12.80
2022-07-31T02:16:57.081Z,12.75
2022-07-31T02:19:29.002Z,12.69
2022-07-31T02:22:08.774Z,12.72
2022-07-31T02:24:40.085Z,12.66
2022-07-31T02:27:56.270Z,12.62
2022-07-31T02:29:59.087Z,12.58
2022-07-31T02:32:29.010Z,12.52
2022-07-31T02:34:59.606Z,12.50
2022-07-31T02:37:28.864Z,12.49
2022-07-31T02:39:59.491Z,12.45
2022-07-31T02:42:28.215Z,12.45
2022-07-31T02:44:57.335Z,12.39
2022-07-31T02:47:25.741Z,12.35
2022-07-31T02:50:04.283Z,12.31
2022-07-31T02:52:32.690Z,12.33
2022-07-31T02:55:03.179Z,12.33
2022-07-31T02:57:31.346Z,12.39
2022-07-31T03:00:03.406Z,12.35
2022-07-31T03:02:37.854Z,12.35
2022-07-31T03:05:08.585Z,12.30
2022-07-31T03:07:41.464Z,12.20
2022-07-31T03:10:13.265Z,12.09
2022-07-31T03:12:51.802Z,12.22
2022-07-31T03:15:21.933Z,12.13
2022-07-31T03:17:53.494Z,12.11
2022-07-31T03:20:25.065Z,12.12
2022-07-31T03:22:55.708Z,12.15
2022-07-31T03:25:25.792Z,12.08
2022-07-31T03:27:57.397Z,12.07
2022-07-31T03:30:26.197Z,12.06
2022-07-31T03:32:58.245Z,12.08
2022-07-31T03:35:30.640Z,12.05
2022-07-31T03:37:58.954Z,11.90
2022-07-31T03:40:29.327Z,11.96
2022-07-31T03:42:58.418Z,11.98
2022-07-31T03:45:30.541Z,11.91
2022-07-31T03:48:00.626Z,11.91
2022-07-31T03:50:30.806Z,11.97
2022-07-31T03:53:04.101Z,11.90
2022-07-31T03:55:36.298Z,11.90
2022-07-31T03:58:09.821Z,11.86
2022-07-31T04:00:38.111Z,11.92
2022-07-31T04:03:12.351Z,11.97
2022-07-31T04:05:44.492Z,11.94
2022-07-31T04:08:17.901Z,11.92
2022-07-31T04:10:46.028Z,12.02
2022-07-31T04:13:14.195Z,12.03
2022-07-31T04:15:45.243Z,11.95
2022-07-31T04:18:17.854Z,11.98
2022-07-31T04:20:53.184Z,11.94
2022-07-31T04:23:21.299Z,11.92
2022-07-31T04:25:55.142Z,11.98
2022-07-31T04:28:24.512Z,12.08
2022-07-31T04:30:52.632Z,12.27
2022-07-31T04:33:21.313Z,12.27
2022-07-31T04:35:55.815Z,12.53
2022-07-31T04:38:28.201Z,12.73
2022-07-31T04:41:02.325Z,12.87
2022-07-31T04:43:30.523Z,13.01
2022-07-31T04:45:59.128Z,13.13
2022-07-31T04:48:29.810Z,13.20
2022-07-31T04:50:59.910Z,13.36
2022-07-31T04:53:28.350Z,13.48
2022-07-31T04:56:10.287Z,13.58
2022-07-31T04:58:38.508Z,13.62
2022-07-31T05:01:09.695Z,13.61
2022-07-31T05:03:41.816Z,13.75
2022-07-31T05:06:17.052Z,13.70
2022-07-31T05:08:45.289Z,13.71
2022-07-31T05:11:25.952Z,13.81
2022-07-31T05:13:58.190Z,13.85
2022-07-31T05:16:29.838Z,13.97
2022-07-31T05:18:58.781Z,14.33
2022-07-31T05:21:32.656Z,14.65
2022-07-31T05:24:05.081Z,14.84
2022-07-31T05:26:40.064Z,14.98
2022-07-31T05:29:10.910Z,15.26
2022-07-31T05:31:39.146Z,15.51
2022-07-31T05:34:27.250Z,15.91
2022-07-31T05:37:01.776Z,16.20
2022-07-31T05:39:30.442Z,16.39
2022-07-31T05:41:58.689Z,16.53
2022-07-31T05:44:37.394Z,16.72
2022-07-31T05:47:08.860Z,16.77
2022-07-31T05:49:42.033Z,16.88
2022-07-31T05:52:11.572Z,16.70
2022-07-31T05:54:46.193Z,16.75
2022-07-31T05:57:32.977Z,16.73
2022-07-31T06:00:07.012Z,16.73
2022-07-31T06:02:37.594Z,16.79
2022-07-31T06:05:06.150Z,16.86
2022-07-31T06:07:37.065Z,16.54
2022-07-31T06:10:06.307Z,16.74
2022-07-31T06:12:37.368Z,16.93
2022-07-31T06:15:07.244Z,16.86
2022-07-31T06:17:43.780Z,17.17
2022-07-31T06:20:15.467Z,17.05
2022-07-31T06:22:48.231Z,17.03
2022-07-31T06:25:16.774Z,17.19
2022-07-31T06:27:50.910Z,17.21
2022-07-31T06:30:28.091Z,17.08
2022-07-31T06:32:56.382Z,17.40
2022-07-31T06:35:29.175Z,17.64
2022-07-31T06:38:01.179Z,17.95
2022-07-31T06:40:29.734Z,18.20
2022-07-31T06:42:58.061Z,18.42
2022-07-31T06:45:50.713Z,18.54
2022-07-31T06:48:19.842Z,18.89
2022-07-31T06:50:48.841Z,18.96
2022-07-31T06:53:22.850Z,18.97
2022-07-31T06:55:51.486Z,19.13
2022-07-31T06:58:20.852Z,19.36
2022-07-31T07:00:55.973Z,19.05
2022-07-31T07:03:24.280Z,19.46
2022-07-31T07:05:52.597Z,19.78
2022-07-31T07:08:22.319Z,19.97
2022-07-31T07:10:56.238Z,19.58
2022-07-31T07:13:45.861Z,19.81
2022-07-31T07:16:16.739Z,19.88
2022-07-31T07:18:46.086Z,20.18
2022-07-31T07:21:14.596Z,20.06
2022-07-31T07:23:47.463Z,20.05
2022-07-31T07:26:21.823Z,19.99
2022-07-31T07:28:56.605Z,19.88
2022-07-31T07:31:31.574Z,19.72
2022-07-31T07:34:03.601Z,19.83
2022-07-31T07:36:32.109Z,20.07
2022-07-31T07:39:03.817Z,20.41
2022-07-31T07:41:32.107Z,20.53
2022-07-31T07:44:00.735Z,20.60
2022-07-31T07:46:36.340Z,20.87
2022-07-31T07:49:05.377Z,21.24
2022-07-31T07:51:34.084Z,21.19
2022-07-31T07:54:15.869Z,20.95
2022-07-31T07:56:45.531Z,20.86
2022-07-31T07:59:14.925Z,21.21
2022-07-31T08:01:43.605Z,21.60
2022-07-31T08:04:11.984Z,21.53
2022-07-31T08:06:40.260Z,21.18
2022-07-31T08:09:10.102Z,21.28
2022-07-31T08:11:40.846Z,21.22
2022-07-31T08:14:15.242Z,21.04
2022-07-31T08:16:44.363Z,21.49
2022-07-31T08:19:14.624Z,21.97
2022-07-31T08:21:42.918Z,21.87
2022-07-31T08:24:15.498Z,21.97
2022-07-31T08:27:03.792Z,22.24
2022-07-31T08:29:43.721Z,22.05
2022-07-31T08:32:13.784Z,21.90
2022-07-31T08:34:56.617Z,22.36
2022-07-31T08:53:10.462Z,21.77
2022-07-31T09:09:04.803Z,21.53
2022-07-31T09:18:23.113Z,21.79
2022-07-31T11:39:51.361Z,25.80
2022-07-31T11:42:44.593Z,26.03
2022-07-31T11:51:45.890Z,27.41
2022-07-31T12:18:49.008Z,26.45
2022-07-31T12:21:44.806Z,27.08
2022-07-31T14:20:56.416Z,33.31
2022-07-31T14:38:51.194Z,38.83
2022-07-31T14:41:41.972Z,35.85
2022-07-31T14:47:09.805Z,30.46
2022-07-31T14:50:09.499Z,30.00
2022-07-31T14:52:27.781Z,29.66
2022-07-31T14:55:06.696Z,29.86
2022-07-31T14:57:35.247Z,30.33
2022-07-31T15:00:03.373Z,31.12
2022-07-31T15:02:39.341Z,30.15
2022-07-31T15:06:41.347Z,29.74
2022-07-31T15:07:58.156Z,30.12
2022-07-31T15:10:27.806Z,34.24
2022-07-31T15:12:59.202Z,35.33
2022-07-31T15:15:30.254Z,36.56
2022-07-31T15:18:02.029Z,36.10
2022-07-31T15:20:33.005Z,33.70
2022-07-31T15:23:01.618Z,31.48
2022-07-31T15:25:34.100Z,30.16
2022-07-31T15:28:02.372Z,30.42
2022-07-31T15:30:31.108Z,30.15
2022-07-31T15:32:59.178Z,30.71
2022-07-31T15:35:29.228Z,30.03
2022-07-31T15:37:59.815Z,29.73
2022-07-31T15:40:27.877Z,29.09
2022-07-31T15:43:00.432Z,28.69
2022-07-31T15:45:28.700Z,28.46
2022-07-31T15:47:59.731Z,28.48
2022-07-31T15:50:27.926Z,28.52
2022-07-31T15:52:56.127Z,28.09
2022-07-31T15:55:24.318Z,27.94
2022-07-31T15:57:52.548Z,27.64
2022-07-31T16:00:22.602Z,27.68
2022-07-31T16:02:57.221Z,27.92
2022-07-31T16:05:36.866Z,28.12
2022-07-31T16:08:32.330Z,28.17
2022-07-31T16:10:56.094Z,28.00
2022-07-31T16:13:27.403Z,27.83
2022-07-31T16:15:57.254Z,27.55
2022-07-31T16:18:25.467Z,27.39
2022-07-31T16:20:53.571Z,27.21
2022-07-31T16:23:28.155Z,26.97
2022-07-31T16:26:08.698Z,26.80
2022-07-31T16:28:36.866Z,26.73
2022-07-31T16:31:06.366Z,26.74
2022-07-31T16:33:34.458Z,26.64
2022-07-31T16:36:02.585Z,26.51
2022-07-31T16:38:36.177Z,26.39
2022-07-31T16:41:08.865Z,26.35
2022-07-31T16:43:49.428Z,26.33
2022-07-31T16:46:20.678Z,26.13
2022-07-31T16:48:49.022Z,25.95
2022-07-31T16:51:17.127Z,25.89
2022-07-31T16:54:13.662Z,25.85
2022-07-31T16:56:33.582Z,25.96
2022-07-31T16:59:04.729Z,26.15
2022-07-31T17:01:54.204Z,26.37
2022-07-31T17:04:28.595Z,26.52
2022-07-31T17:06:57.071Z,26.42
2022-07-31T17:09:25.309Z,26.42
2022-07-31T17:12:00.096Z,26.28
2022-07-31T17:14:29.044Z,26.26
2022-07-31T17:17:01.489Z,26.21
2022-07-31T17:19:36.116Z,26.03
2022-07-31T17:22:11.329Z,26.05
2022-07-31T17:24:41.760Z,25.99
2022-07-31T17:27:13.529Z,26.00
2022-07-31T17:29:41.607Z,25.92
2022-07-31T17:32:14.425Z,26.11
2022-07-31T17:34:45.153Z,26.26
2022-07-31T17:37:13.717Z,26.14
2022-07-31T17:39:41.902Z,26.12
2022-07-31T17:42:10.072Z,26.04
2022-07-31T17:44:39.831Z,26.00
2022-07-31T17:47:10.974Z,25.93
2022-07-31T17:49:40.709Z,25.79
2022-07-31T17:52:09.033Z,25.60
2022-07-31T17:54:37.375Z,25.56
2022-07-31T17:57:14.290Z,25.34
2022-07-31T17:59:42.506Z,25.22
2022-07-31T18:02:13.575Z,24.87
2022-07-31T18:04:43.294Z,24.62
2022-07-31T18:07:12.666Z,24.48
2022-07-31T18:09:43.050Z,24.31
2022-07-31T18:12:15.678Z,24.23
2022-07-31T18:14:46.379Z,24.12
2022-07-31T18:17:14.525Z,23.94
2022-07-31T18:19:47.562Z,23.94
2022-07-31T18:22:18.803Z,23.83
2022-07-31T18:24:46.899Z,23.72
2022-07-31T18:27:15.114Z,23.72
2022-07-31T18:29:56.505Z,23.61
2022-07-31T18:32:31.213Z,23.48
2022-07-31T18:35:11.894Z,23.52
2022-07-31T18:37:40.005Z,23.45
2022-07-31T18:40:15.452Z,23.44
2022-07-31T18:42:46.597Z,23.34
2022-07-31T18:45:14.836Z,23.31
2022-07-31T18:47:43.029Z,23.22
2022-07-31T18:50:59.457Z,23.10
2022-07-31T18:53:09.812Z,23.02
2022-07-31T18:55:41.923Z,23.00
2022-07-31T18:58:12.783Z,22.87
2022-07-31T19:00:42.782Z,22.83
2022-07-31T19:03:11.159Z,22.77
2022-07-31T19:05:44.627Z,22.67
2022-07-31T19:08:12.744Z,22.62
2022-07-31T19:10:40.887Z,22.56
2022-07-31T19:13:09.017Z,22.48
2022-07-31T19:15:47.477Z,22.43
2022-07-31T19:18:15.681Z,22.39
2022-07-31T19:20:59.956Z,22.35
2022-07-31T19:23:46.147Z,22.29
2022-07-31T19:26:16.223Z,22.09
2022-07-31T19:28:50.237Z,22.13
2022-07-31T19:31:19.994Z,22.05
2022-07-31T19:33:48.189Z,22.08
2022-07-31T19:36:17.839Z,22.03
2022-07-31T19:38:47.876Z,22.00
2022-07-31T19:41:16.118Z,21.97
2022-07-31T19:43:49.982Z,21.91
2022-07-31T19:46:21.946Z,21.87
2022-07-31T19:48:51.639Z,21.86
2022-07-31T19:51:24.407Z,21.85
2022-07-31T19:53:57.246Z,21.73
2022-07-31T19:56:25.366Z,21.72
2022-07-31T19:58:53.545Z,21.63
2022-07-31T20:01:21.945Z,21.56
2022-07-31T20:03:51.006Z,21.47
2022-07-31T20:06:22.539Z,21.46
2022-07-31T20:08:58.834Z,21.36
2022-07-31T20:11:27.022Z,21.38
2022-07-31T20:14:00.218Z,21.37
2022-07-31T20:16:28.715Z,21.37
2022-07-31T20:18:56.951Z,21.33
2022-07-31T20:21:25.088Z,21.31
2022-07-31T20:23:56.764Z,21.35
2022-07-31T20:26:30.455Z,21.34
2022-07-31T20:29:01.097Z,21.27
2022-07-31T20:31:31.753Z,21.21
2022-07-31T20:34:02.945Z,21.24
2022-07-31T20:36:31.171Z,21.16
2022-07-31T20:39:00.812Z,21.16
2022-07-31T20:41:33.514Z,21.14
2022-07-31T20:44:01.707Z,21.11
2022-07-31T20:46:34.315Z,21.11
2022-07-31T20:49:02.732Z,21.12
2022-07-31T20:51:33.500Z,21.06
2022-07-31T20:54:05.876Z,21.01
2022-07-31T20:56:34.331Z,21.08
2022-07-31T20:59:03.521Z,21.12
2022-07-31T21:01:37.652Z,21.03
2022-07-31T21:04:07.936Z,21.06
2022-07-31T21:06:36.021Z,21.03
2022-07-31T21:09:09.685Z,21.02
2022-07-31T21:11:43.953Z,20.96
2022-07-31T21:14:15.638Z,20.97
2022-07-31T21:16:46.762Z,20.92
2022-07-31T21:19:17.854Z,20.86
2022-07-31T21:21:47.539Z,20.84
2022-07-31T21:24:17.627Z,20.68
2022-07-31T21:26:51.056Z,20.66
2022-07-31T21:29:22.512Z,20.69
2022-07-31T21:31:56.646Z,20.66
2022-07-31T21:34:28.010Z,20.65
2022-07-31T21:36:56.291Z,20.60
2022-07-31T21:39:34.602Z,20.42
2022-07-31T21:42:06.046Z,20.48
2022-07-31T21:44:37.364Z,20.43
2022-07-31T21:47:06.450Z,20.41
2022-07-31T21:49:36.657Z,20.39
2022-07-31T21:52:13.288Z,20.33
2022-07-31T21:54:42.789Z,20.22
2022-07-31T21:57:17.534Z,20.15
2022-07-31T21:59:48.417Z,20.12
2022-07-31T22:02:17.702Z,20.01
2022-07-31T22:05:02.101Z,19.98
2022-07-31T22:07:33.345Z,19.91
2022-07-31T22:10:08.451Z,19.84
2022-07-31T22:12:36.578Z,19.82
2022-07-31T22:15:12.329Z,19.82
2022-07-31T22:17:43.145Z,19.80
2022-07-31T22:20:12.426Z,19.78
2022-07-31T22:22:45.615Z,19.75
2022-07-31T22:25:16.540Z,19.73
2022-07-31T22:27:58.326Z,19.72
2022-07-31T22:30:28.099Z,19.72
2022-07-31T22:33:01.437Z,19.73
2022-07-31T22:35:40.976Z,19.77
2022-07-31T22:38:11.234Z,19.70
2022-07-31T22:40:51.468Z,19.82
2022-07-31T22:44:09.634Z,19.83
2022-07-31T22:46:16.055Z,19.83
2022-07-31T22:48:45.877Z,19.87
2022-07-31T22:51:16.450Z,19.87
2022-07-31T22:53:48.679Z,19.83
2022-07-31T22:56:18.955Z,19.86
2022-07-31T22:58:47.088Z,19.80
2022-07-31T23:01:20.771Z,19.54
2022-07-31T23:03:48.867Z,19.57
2022-07-31T23:06:32.208Z,19.63
2022-07-31T23:09:01.566Z,19.56
2022-07-31T23:11:31.129Z,19.52
2022-07-31T23:14:02.231Z,19.49
2022-07-31T23:16:30.297Z,19.51
2022-07-31T23:18:58.407Z,19.38
2022-07-31T23:21:26.648Z,19.36
2022-07-31T23:23:58.495Z,19.27
2022-07-31T23:26:27.088Z,19.11
2022-07-31T23:28:59.436Z,19.12
2022-07-31T23:31:32.987Z,19.12
2022-07-31T23:34:02.264Z,19.08
2022-07-31T23:36:30.396Z,19.18
2022-07-31T23:38:58.689Z,19.13
2022-07-31T23:41:44.534Z,19.01
2022-07-31T23:44:14.017Z,18.98
2022-07-31T23:46:46.823Z,18.85
2022-07-31T23:49:22.409Z,18.84
2022-07-31T23:51:55.637Z,18.66
2022-07-31T23:54:26.669Z,18.60
2022-07-31T23:57:01.492Z,18.58
2022-07-31T23:59:30.972Z,18.76
